Time;durP1;ratioP1;P1;durP2;ratioP2;P2;SDS_P1;SDS_P2;PMS_P1;PMS_P2;Temp;Humidity;BMP_temperature;BMP_pressure;BME280_temperature;BME280_humidity;BME280_pressure;Samples;Min_cycle;Max_cycle;Signal;HPM_P1;HPM_P2
2023/03/14 00:03:00;;;;;;;16.30;8.37;;;;;;;;;;10455208;28;20393;-80
2023/03/14 00:08:01;;;;;;;15.53;7.50;;;;;;;;;;10464987;28;20025;-81
2023/03/14 00:13:02;;;;;;;9.70;4.97;;;;;;;;;;10463727;28;20036;-81
2023/03/14 00:18:03;;;;;;;11.67;5.60;;;;;;;;;;10457401;28;20033;-80
2023/03/14 00:23:04;;;;;;;20.40;12.57;;;;;;;;;;10470962;28;20032;-80
2023/03/14 00:28:05;;;;;;;11.77;5.40;;;;;;;;;;10467778;23;20077;-82
2023/03/14 00:33:06;;;;;;;10.57;5.10;;;;;;;;;;10484909;28;20037;-79
2023/03/14 00:38:07;;;;;;;12.27;5.10;;;;;;;;;;10466219;28;20057;-81
2023/03/14 00:43:08;;;;;;;14.60;5.90;;;;;;;;;;10448773;28;20044;-79
2023/03/14 00:48:09;;;;;;;13.10;5.47;;;;;;;;;;10449452;28;20567;-82
2023/03/14 00:53:10;;;;;;;14.57;6.47;;;;;;;;;;10470902;28;20029;-81
2023/03/14 00:58:13;;;;;;;13.67;6.80;;;;;;;;;;10464986;28;20033;-81
2023/03/14 01:03:14;;;;;;;19.97;9.13;;;;;;;;;;10475482;28;20032;-81
2023/03/14 01:08:15;;;;;;;19.47;8.97;;;;;;;;;;10436277;28;20466;-81
2023/03/14 01:13:16;;;;;;;19.43;10.37;;;;;;;;;;10446055;28;20032;-80
2023/03/14 01:18:17;;;;;;;22.73;9.63;;;;;;;;;;10447646;28;20512;-81
2023/03/14 01:23:18;;;;;;;28.27;11.63;;;;;;;;;;10446436;28;20037;-83
2023/03/14 01:28:19;;;;;;;31.27;13.50;;;;;;;;;;10438026;28;20057;-83
2023/03/14 01:33:20;;;;;;;27.77;12.03;;;;;;;;;;10447179;28;20139;-83
2023/03/14 01:38:21;;;;;;;20.13;9.70;;;;;;;;;;10445010;28;20230;-79
2023/03/14 01:43:24;;;;;;;22.80;10.37;;;;;;;;;;10444532;28;20033;-79
2023/03/14 01:48:26;;;;;;;20.03;9.17;;;;;;;;;;10445706;28;20032;-79
2023/03/14 01:53:28;;;;;;;16.20;8.10;;;;;;;;;;10445625;28;20768;-81
2023/03/14 01:58:30;;;;;;;21.97;8.47;;;;;;;;;;10440619;28;20029;-81
2023/03/14 02:03:36;;;;;;;13.93;6.70;;;;;;;;;;10445581;28;20041;-81
2023/03/14 02:08:37;;;;;;;18.40;7.18;;;;;;;;;;10446306;28;20040;-79
2023/03/14 02:13:38;;;;;;;13.77;6.63;;;;;;;;;;10442683;28;20036;-80
2023/03/14 02:18:40;;;;;;;15.90;7.37;;;;;;;;;;10445874;28;20389;-80
2023/03/14 02:24:04;;;;;;;18.90;7.80;;;;;;;;;;10444016;28;20060;-82
2023/03/14 02:29:05;;;;;;;17.77;7.73;;;;;;;;;;10441658;28;20052;-80
2023/03/14 02:34:06;;;;;;;14.20;7.27;;;;;;;;;;10442075;28;20550;-81
2023/03/14 02:39:12;;;;;;;16.77;8.07;;;;;;;;;;10434569;28;20041;-80
2023/03/14 02:44:13;;;;;;;16.27;7.80;;;;;;;;;;10443637;28;20037;-80
2023/03/14 02:49:14;;;;;;;13.13;7.10;;;;;;;;;;10443427;28;20029;-80
2023/03/14 02:54:16;;;;;;;13.67;6.87;;;;;;;;;;10443214;28;20078;-79
2023/03/14 02:59:17;;;;;;;15.67;7.40;;;;;;;;;;10429371;28;20098;-83
2023/03/14 03:04:18;;;;;;;18.10;8.60;;;;;;;;;;10443116;28;20478;-83
2023/03/14 03:09:19;;;;;;;14.77;6.80;;;;;;;;;;10443526;28;20037;-80
2023/03/14 03:14:20;;;;;;;16.40;7.40;;;;;;;;;;10439551;28;20025;-81
2023/03/14 03:19:21;;;;;;;18.27;7.93;;;;;;;;;;10442979;28;20037;-79
2023/03/14 03:24:22;;;;;;;15.87;7.53;;;;;;;;;;10440544;28;20028;-80
2023/03/14 03:29:23;;;;;;;19.30;8.30;;;;;;;;;;10437529;28;20055;-80
2023/03/14 03:34:24;;;;;;;17.27;8.00;;;;;;;;;;10444673;28;20025;-80
2023/03/14 03:39:25;;;;;;;12.40;6.10;;;;;;;;;;10452616;28;20066;-81
2023/03/14 03:44:26;;;;;;;11.03;5.40;;;;;;;;;;10447863;28;20032;-81
2023/03/14 03:49:31;;;;;;;12.83;5.70;;;;;;;;;;10450521;28;20106;-80
2023/03/14 03:54:32;;;;;;;19.97;8.60;;;;;;;;;;10449739;28;20507;-79
2023/03/14 03:59:33;;;;;;;23.87;9.63;;;;;;;;;;10445801;28;20114;-81
2023/03/14 04:04:34;;;;;;;19.07;8.80;;;;;;;;;;10448899;28;20466;-82
2023/03/14 04:09:35;;;;;;;25.20;8.33;;;;;;;;;;10448597;28;20033;-81
2023/03/14 04:14:36;;;;;;;15.60;7.70;;;;;;;;;;10435354;28;20032;-81
2023/03/14 04:19:37;;;;;;;16.57;7.47;;;;;;;;;;10446619;28;20047;-83
2023/03/14 04:24:38;;;;;;;13.97;7.07;;;;;;;;;;10449242;28;20091;-81
2023/03/14 04:29:39;;;;;;;13.77;7.77;;;;;;;;;;10409573;28;20076;-85
2023/03/14 04:34:40;;;;;;;16.03;6.07;;;;;;;;;;10445881;28;20033;-82
2023/03/14 04:39:42;;;;;;;17.10;7.23;;;;;;;;;;10449874;28;20052;-80
2023/03/14 04:44:43;;;;;;;14.47;7.27;;;;;;;;;;10440425;28;20535;-80
2023/03/14 04:49:44;;;;;;;18.60;9.63;;;;;;;;;;10425037;28;20021;-79
2023/03/14 04:54:45;;;;;;;15.87;8.90;;;;;;;;;;10446188;28;20043;-80
2023/03/14 04:59:46;;;;;;;24.40;13.80;;;;;;;;;;10446855;28;20041;-82
2023/03/14 05:04:47;;;;;;;25.77;11.50;;;;;;;;;;10444288;28;20500;-81
2023/03/14 05:09:48;;;;;;;22.77;10.33;;;;;;;;;;10445822;28;20037;-82
2023/03/14 05:14:49;;;;;;;19.67;9.53;;;;;;;;;;10446461;28;20566;-80
2023/03/14 05:19:50;;;;;;;24.83;11.23;;;;;;;;;;10446141;28;20086;-83
2023/03/14 05:24:53;;;;;;;33.90;14.47;;;;;;;;;;10438989;28;20034;-83
2023/03/14 05:29:54;;;;;;;18.73;10.03;;;;;;;;;;10439300;28;20091;-83
2023/03/14 05:34:58;;;;;;;16.10;7.70;;;;;;;;;;10443673;28;20031;-82
2023/03/14 05:39:59;;;;;;;13.70;6.53;;;;;;;;;;10446678;28;20029;-80
2023/03/14 05:45:00;;;;;;;15.53;7.70;;;;;;;;;;10447458;28;20033;-81
2023/03/14 05:50:01;;;;;;;15.90;6.20;;;;;;;;;;10446954;28;20055;-81
2023/03/14 05:55:03;;;;;;;10.97;6.40;;;;;;;;;;10446156;28;20430;-82
2023/03/14 06:00:04;;;;;;;14.97;7.47;;;;;;;;;;10444954;28;20187;-81
2023/03/14 06:05:05;;;;;;;19.47;7.37;;;;;;;;;;10445342;28;20047;-81
2023/03/14 06:10:06;;;;;;;15.60;7.27;;;;;;;;;;10445475;28;20427;-81
2023/03/14 06:15:08;;;;;;;27.03;14.50;;;;;;;;;;10446154;28;20090;-81
2023/03/14 06:20:09;;;;;;;15.47;6.43;;;;;;;;;;10445528;28;20067;-81
2023/03/14 06:25:10;;;;;;;18.00;8.83;;;;;;;;;;10444823;28;20032;-82
2023/03/14 06:30:11;;;;;;;16.57;9.93;;;;;;;;;;10445242;28;20088;-81
2023/03/14 06:35:12;;;;;;;18.67;9.07;;;;;;;;;;10444645;28;20055;-81
2023/03/14 06:40:16;;;;;;;17.47;9.10;;;;;;;;;;10443986;28;20072;-80
2023/03/14 06:45:17;;;;;;;12.03;6.63;;;;;;;;;;10444683;28;20029;-80
2023/03/14 06:50:18;;;;;;;13.27;7.20;;;;;;;;;;10444556;28;20024;-80
2023/03/14 06:55:20;;;;;;;19.27;8.60;;;;;;;;;;10442869;28;20013;-80
2023/03/14 07:00:21;;;;;;;19.90;8.00;;;;;;;;;;10442704;28;20120;-82
2023/03/14 07:05:22;;;;;;;20.52;7.90;;;;;;;;;;10443919;28;20466;-80
2023/03/14 07:10:23;;;;;;;14.32;6.97;;;;;;;;;;10443099;28;20029;-80
2023/03/14 07:15:24;;;;;;;24.35;9.32;;;;;;;;;;10443486;28;20488;-83
2023/03/14 07:20:25;;;;;;;55.22;18.05;;;;;;;;;;10443733;28;20045;-83
2023/03/14 07:25:28;;;;;;;32.50;11.27;;;;;;;;;;10442969;28;20049;-79
2023/03/14 07:30:29;;;;;;;25.00;10.23;;;;;;;;;;10442589;28;20106;-80
2023/03/14 07:35:30;;;;;;;21.77;7.68;;;;;;;;;;10443070;28;20033;-81
2023/03/14 07:40:31;;;;;;;36.83;12.57;;;;;;;;;;10442864;28;20598;-79
2023/03/14 07:45:32;;;;;;;34.90;14.27;;;;;;;;;;10442752;28;20052;-80
2023/03/14 07:50:33;;;;;;;44.83;15.18;;;;;;;;;;10442541;28;20021;-83
2023/03/14 07:55:34;;;;;;;21.70;8.98;;;;;;;;;;10442665;28;20591;-80
2023/03/14 08:00:35;;;;;;;15.98;7.68;;;;;;;;;;10442622;28;20148;-81
2023/03/14 08:05:36;;;;;;;28.25;10.15;;;;;;;;;;10442391;28;20029;-80
2023/03/14 08:10:37;;;;;;;27.92;10.45;;;;;;;;;;10442410;28;20040;-84
2023/03/14 08:15:39;;;;;;;17.55;5.97;;;;;;;;;;10442222;28;20116;-82
2023/03/14 08:20:40;;;;;;;20.33;9.35;;;;;;;;;;10442513;28;20037;-80
2023/03/14 08:25:41;;;;;;;32.13;25.67;;;;;;;;;;10450159;28;20055;-81
2023/03/14 08:30:42;;;;;;;20.35;8.65;;;;;;;;;;10449498;28;20643;-82
2023/03/14 08:35:43;;;;;;;20.23;7.68;;;;;;;;;;10449898;28;20087;-82
2023/03/14 08:40:44;;;;;;;19.25;8.98;;;;;;;;;;10448975;28;20155;-81
2023/03/14 08:45:45;;;;;;;14.20;7.13;;;;;;;;;;10450052;28;20112;-80
2023/03/14 08:50:46;;;;;;;12.73;6.00;;;;;;;;;;10449807;28;20489;-80
2023/03/14 08:55:47;;;;;;;15.05;7.35;;;;;;;;;;10448699;28;20033;-83
2023/03/14 09:00:48;;;;;;;16.67;8.05;;;;;;;;;;10449068;28;20075;-80
2023/03/14 09:05:50;;;;;;;31.55;14.05;;;;;;;;;;10448079;28;20028;-80
2023/03/14 09:10:51;;;;;;;14.15;5.60;;;;;;;;;;10448225;28;20029;-81
2023/03/14 09:15:52;;;;;;;15.40;5.45;;;;;;;;;;10446143;28;20516;-83
2023/03/14 09:20:53;;;;;;;11.40;5.28;;;;;;;;;;10426629;28;20589;-80
2023/03/14 09:25:55;;;;;;;11.27;6.07;;;;;;;;;;10440066;28;20025;-81
2023/03/14 09:30:56;;;;;;;26.63;10.15;;;;;;;;;;10445012;28;20496;-82
2023/03/14 09:36:00;;;;;;;18.38;8.13;;;;;;;;;;10446986;28;20864;-81
2023/03/14 09:41:03;;;;;;;15.32;6.65;;;;;;;;;;10447251;28;20039;-79
2023/03/14 09:46:04;;;;;;;19.70;8.98;;;;;;;;;;10445380;28;20033;-81
2023/03/14 09:51:08;;;;;;;18.42;8.48;;;;;;;;;;10445185;28;20389;-85
2023/03/14 09:56:15;;;;;;;18.05;7.35;;;;;;;;;;10444629;28;20029;-84
2023/03/14 10:01:17;;;;;;;13.43;5.75;;;;;;;;;;10446403;28;20040;-81
2023/03/14 10:06:18;;;;;;;10.93;5.32;;;;;;;;;;10445579;28;20079;-81
2023/03/14 10:11:19;;;;;;;10.30;4.75;;;;;;;;;;10446014;28;20036;-81
2023/03/14 10:16:28;;;;;;;7.85;5.28;;;;;;;;;;10445802;28;20499;-81
2023/03/14 10:21:30;;;;;;;13.27;5.78;;;;;;;;;;10444225;28;20705;-81
2023/03/14 10:26:34;;;;;;;15.23;5.72;;;;;;;;;;10444304;28;20115;-81
2023/03/14 10:31:55;;;;;;;11.88;6.45;;;;;;;;;;10434216;28;20053;-83
2023/03/14 10:36:59;;;;;;;11.20;5.85;;;;;;;;;;10444832;28;20365;-80
2023/03/14 10:42:13;;;;;;;11.13;6.22;;;;;;;;;;10443381;28;20093;-81
2023/03/14 10:47:17;;;;;;;18.48;7.40;;;;;;;;;;10442165;28;20369;-80
2023/03/14 10:52:23;;;;;;;53.83;18.10;;;;;;;;;;10443437;28;20506;-82
2023/03/14 10:57:25;;;;;;;16.85;7.05;;;;;;;;;;10441929;28;20048;-80
2023/03/14 11:02:44;;;;;;;14.60;6.53;;;;;;;;;;10442481;28;20033;-80
2023/03/14 11:07:45;;;;;;;11.18;6.45;;;;;;;;;;10443236;28;20064;-83
2023/03/14 11:13:02;;;;;;;13.80;6.63;;;;;;;;;;10442765;28;20116;-82
2023/03/14 11:18:21;;;;;;;13.15;7.07;;;;;;;;;;10441382;28;20025;-81
2023/03/14 11:23:23;;;;;;;13.32;7.57;;;;;;;;;;10442993;28;20499;-81
2023/03/14 11:28:37;;;;;;;15.90;8.52;;;;;;;;;;10442736;28;20409;-82
2023/03/14 11:33:40;;;;;;;9.60;5.47;;;;;;;;;;10442249;28;20036;-81
2023/03/14 11:38:49;;;;;;;15.48;7.20;;;;;;;;;;10440001;28;20569;-81
2023/03/14 11:43:55;;;;;;;13.10;6.75;;;;;;;;;;10436253;28;20118;-85
2023/03/14 11:49:07;;;;;;;11.40;5.97;;;;;;;;;;10429284;28;20530;-81
2023/03/14 11:54:15;;;;;;;9.98;5.35;;;;;;;;;;10426308;28;20034;-83
2023/03/14 11:59:30;;;;;;;7.72;4.70;;;;;;;;;;10442483;28;20037;-83
2023/03/14 12:04:40;;;;;;;12.90;5.80;;;;;;;;;;10450383;28;20120;-81
2023/03/14 12:09:41;;;;;;;11.43;5.63;;;;;;;;;;10445773;28;20040;-84
2023/03/14 12:14:47;;;;;;;8.15;4.95;;;;;;;;;;10450296;28;20040;-86
2023/03/14 12:19:48;;;;;;;10.55;5.60;;;;;;;;;;10448506;28;20057;-81
2023/03/14 12:24:52;;;;;;;12.02;6.00;;;;;;;;;;10446801;28;20033;-83
2023/03/14 12:30:00;;;;;;;16.67;6.90;;;;;;;;;;10446726;28;20064;-81
2023/03/14 12:35:08;;;;;;;13.65;6.95;;;;;;;;;;10449062;28;20361;-81
2023/03/14 12:40:09;;;;;;;16.05;7.18;;;;;;;;;;10448554;28;20037;-81
2023/03/14 12:45:24;;;;;;;15.80;7.13;;;;;;;;;;10447968;28;20032;-81
2023/03/14 12:50:33;;;;;;;20.38;8.80;;;;;;;;;;10444915;28;20037;-83
2023/03/14 12:55:36;;;;;;;15.90;7.72;;;;;;;;;;10448384;28;20463;-80
2023/03/14 13:00:41;;;;;;;21.83;10.07;;;;;;;;;;10447603;28;20044;-84
2023/03/14 13:05:52;;;;;;;17.77;8.80;;;;;;;;;;10446543;28;20037;-81
2023/03/14 13:10:54;;;;;;;14.70;8.18;;;;;;;;;;10447342;28;20099;-80
2023/03/14 13:16:03;;;;;;;13.50;7.05;;;;;;;;;;10447121;28;20043;-80
2023/03/14 13:21:07;;;;;;;13.80;7.75;;;;;;;;;;10444932;28;20049;-84
2023/03/14 13:26:14;;;;;;;16.58;8.80;;;;;;;;;;10443276;28;20033;-81
2023/03/14 13:31:22;;;;;;;36.00;18.83;;;;;;;;;;10444094;28;20037;-80
2023/03/14 13:36:23;;;;;;;62.95;27.50;;;;;;;;;;10441568;28;20535;-82
2023/03/14 13:41:24;;;;;;;66.32;27.98;;;;;;;;;;10437106;28;20124;-80
2023/03/14 13:46:25;;;;;;;57.75;27.88;;;;;;;;;;10436993;28;20036;-80
2023/03/14 13:51:32;;;;;;;53.08;22.35;;;;;;;;;;10445088;28;20153;-82
2023/03/14 13:56:33;;;;;;;41.85;18.65;;;;;;;;;;10439621;28;20064;-80
2023/03/14 14:01:35;;;;;;;38.72;16.75;;;;;;;;;;10440555;28;20098;-81
2023/03/14 14:06:38;;;;;;;20.98;9.32;;;;;;;;;;10444471;28;20471;-80
2023/03/14 14:11:42;;;;;;;39.25;16.45;;;;;;;;;;10445836;28;20030;-79
2023/03/14 14:16:44;;;;;;;48.42;18.58;;;;;;;;;;10440019;28;20589;-82
2023/03/14 14:21:45;;;;;;;43.97;16.65;;;;;;;;;;10436799;28;20041;-78
2023/03/14 14:27:07;;;;;;;45.55;17.95;;;;;;;;;;10441805;28;20037;-78
2023/03/14 14:32:08;;;;;;;31.95;13.80;;;;;;;;;;10445222;28;20048;-79
2023/03/14 14:37:35;;;;;;;27.52;11.77;;;;;;;;;;10438098;28;20037;-81
2023/03/14 14:42:40;;;;;;;76.93;38.05;;;;;;;;;;10435472;28;20150;-84
2023/03/14 14:47:52;;;;;;;89.18;46.58;;;;;;;;;;10441300;28;20067;-83
2023/03/14 14:52:56;;;;;;;47.72;19.63;;;;;;;;;;10454678;23;20073;-81
2023/03/14 14:57:57;;;;;;;35.97;16.02;;;;;;;;;;10440687;28;20036;-82
2023/03/14 15:03:01;;;;;;;45.90;19.58;;;;;;;;;;10435743;28;20045;-80
2023/03/14 15:08:02;;;;;;;32.65;13.55;;;;;;;;;;10431449;28;20032;-82
2023/03/14 15:13:03;;;;;;;27.20;13.68;;;;;;;;;;10448655;28;20025;-79
2023/03/14 15:18:12;;;;;;;62.10;23.90;;;;;;;;;;10449596;28;20046;-81
2023/03/14 15:23:14;;;;;;;33.70;14.85;;;;;;;;;;10443149;28;20040;-79
2023/03/14 15:28:20;;;;;;;51.20;21.17;;;;;;;;;;10456309;28;20545;-81
2023/03/14 15:33:21;;;;;;;60.40;23.13;;;;;;;;;;10435985;28;20039;-79
2023/03/14 15:38:23;;;;;;;28.75;12.52;;;;;;;;;;10442914;28;20033;-83
2023/03/14 15:43:24;;;;;;;39.85;16.50;;;;;;;;;;10448458;28;20061;-80
2023/03/14 15:48:25;;;;;;;29.67;12.35;;;;;;;;;;10460872;28;20163;-81
2023/03/14 15:53:26;;;;;;;30.60;12.27;;;;;;;;;;10442329;28;20053;-81
2023/03/14 15:58:27;;;;;;;32.33;16.73;;;;;;;;;;10441582;28;20045;-80
2023/03/14 16:03:29;;;;;;;27.95;14.25;;;;;;;;;;10469228;28;20063;-81
2023/03/14 16:08:30;;;;;;;28.15;13.77;;;;;;;;;;10468935;28;20021;-79
2023/03/14 16:13:31;;;;;;;23.95;14.07;;;;;;;;;;10440627;28;20052;-80
2023/03/14 16:18:33;;;;;;;29.13;20.85;;;;;;;;;;10441588;28;20702;-82
2023/03/14 16:23:35;;;;;;;21.48;11.13;;;;;;;;;;10439461;28;20102;-81
2023/03/14 16:28:36;;;;;;;11.35;6.38;;;;;;;;;;10441715;28;20112;-83
2023/03/14 16:33:38;;;;;;;12.73;7.80;;;;;;;;;;10439633;28;20033;-80
2023/03/14 16:38:40;;;;;;;15.35;7.68;;;;;;;;;;10439935;28;20423;-81
2023/03/14 16:43:42;;;;;;;17.83;8.60;;;;;;;;;;10441542;28;20159;-82
2023/03/14 16:48:43;;;;;;;15.57;8.77;;;;;;;;;;10446022;28;20391;-80
2023/03/14 16:53:45;;;;;;;18.30;9.15;;;;;;;;;;10447742;28;20065;-80
2023/03/14 16:58:48;;;;;;;12.73;7.70;;;;;;;;;;10446431;28;20047;-82
2023/03/14 17:03:49;;;;;;;13.70;6.75;;;;;;;;;;10437907;28;20033;-81
2023/03/14 17:08:51;;;;;;;95.72;46.47;;;;;;;;;;10462387;23;20512;-80
2023/03/14 17:13:52;;;;;;;25.05;11.07;;;;;;;;;;10449913;28;20025;-80
2023/03/14 17:18:53;;;;;;;34.47;16.98;;;;;;;;;;10447823;28;20045;-81
2023/03/14 17:23:54;;;;;;;36.53;15.13;;;;;;;;;;10446299;28;20385;-83
2023/03/14 17:28:55;;;;;;;41.95;16.20;;;;;;;;;;10445157;28;20024;-81
2023/03/14 17:33:56;;;;;;;28.00;13.55;;;;;;;;;;10445334;28;20036;-81
2023/03/14 17:38:57;;;;;;;58.30;27.58;;;;;;;;;;10447167;28;20102;-82
2023/03/14 17:43:58;;;;;;;52.33;19.93;;;;;;;;;;10444573;28;20033;-81
2023/03/14 17:48:59;;;;;;;48.87;20.03;;;;;;;;;;10446599;28;20651;-83
2023/03/14 17:54:00;;;;;;;52.70;21.17;;;;;;;;;;10446242;28;20116;-80
2023/03/14 17:59:01;;;;;;;25.90;13.60;;;;;;;;;;10444397;28;20037;-83
2023/03/14 18:04:03;;;;;;;35.03;14.20;;;;;;;;;;10441589;28;20037;-80
2023/03/14 18:09:04;;;;;;;101.57;34.90;;;;;;;;;;10446854;28;20060;-84
2023/03/14 18:14:10;;;;;;;89.83;31.30;;;;;;;;;;10444343;28;20021;-81
2023/03/14 18:19:11;;;;;;;84.00;28.17;;;;;;;;;;10444056;28;20432;-82
2023/03/14 18:24:12;;;;;;;108.47;34.60;;;;;;;;;;10442627;28;20040;-81
2023/03/14 18:29:14;;;;;;;95.17;33.33;;;;;;;;;;10445147;28;20040;-81
2023/03/14 18:34:15;;;;;;;63.33;23.57;;;;;;;;;;10440064;28;20063;-83
2023/03/14 18:39:16;;;;;;;63.40;25.27;;;;;;;;;;10439187;28;20069;-80
2023/03/14 18:44:17;;;;;;;52.63;21.20;;;;;;;;;;10438320;28;20044;-80
2023/03/14 18:49:18;;;;;;;81.03;28.77;;;;;;;;;;10440117;28;20537;-82
2023/03/14 18:54:19;;;;;;;51.57;21.40;;;;;;;;;;10440262;28;20427;-81
2023/03/14 18:59:21;;;;;;;57.03;21.97;;;;;;;;;;10431148;28;20066;-83
2023/03/14 19:04:22;;;;;;;73.23;25.53;;;;;;;;;;10424506;28;20031;-80
2023/03/14 19:09:24;;;;;;;38.87;13.90;;;;;;;;;;10437937;28;20084;-80
2023/03/14 19:14:25;;;;;;;24.50;10.17;;;;;;;;;;10433909;28;20044;-80
2023/03/14 19:19:26;;;;;;;43.27;14.17;;;;;;;;;;10434642;28;20037;-80
2023/03/14 19:24:27;;;;;;;16.63;7.60;;;;;;;;;;10442390;28;20064;-80
2023/03/14 19:29:28;;;;;;;34.33;12.23;;;;;;;;;;10431151;28;20679;-81
2023/03/14 19:34:30;;;;;;;14.43;6.47;;;;;;;;;;10441535;28;20029;-81
2023/03/14 19:39:31;;;;;;;39.33;12.90;;;;;;;;;;10435353;28;20065;-81
2023/03/14 19:44:32;;;;;;;49.37;16.80;;;;;;;;;;10438036;28;20033;-81
2023/03/14 19:49:33;;;;;;;33.83;12.20;;;;;;;;;;10438246;28;20396;-81
2023/03/14 19:54:34;;;;;;;40.47;14.23;;;;;;;;;;10440556;28;20029;-82
2023/03/14 19:59:35;;;;;;;40.43;12.87;;;;;;;;;;10430851;28;20469;-83
2023/03/14 20:04:36;;;;;;;14.43;6.40;;;;;;;;;;10437682;28;20032;-80
2023/03/14 20:09:41;;;;;;;25.20;9.83;;;;;;;;;;10435659;28;20053;-81
2023/03/14 20:14:42;;;;;;;10.10;4.87;;;;;;;;;;10433466;28;20056;-80
2023/03/14 20:19:43;;;;;;;14.77;5.60;;;;;;;;;;10439144;28;20052;-81
2023/03/14 20:24:44;;;;;;;20.57;7.83;;;;;;;;;;10441918;28;20133;-83
2023/03/14 20:29:45;;;;;;;17.30;7.17;;;;;;;;;;10430565;28;20029;-81
2023/03/14 20:34:46;;;;;;;16.20;7.80;;;;;;;;;;10444216;28;20033;-83
2023/03/14 20:39:47;;;;;;;18.33;8.10;;;;;;;;;;10433011;28;20045;-84
2023/03/14 20:44:48;;;;;;;13.27;6.27;;;;;;;;;;10448698;28;20103;-83
2023/03/14 20:49:49;;;;;;;24.37;10.03;;;;;;;;;;10440343;28;20056;-82
2023/03/14 20:54:50;;;;;;;37.20;16.17;;;;;;;;;;10432671;28;20127;-84
2023/03/14 20:59:51;;;;;;;14.57;5.80;;;;;;;;;;10436160;28;20041;-83
2023/03/14 21:04:52;;;;;;;9.73;4.80;;;;;;;;;;10438284;28;20480;-83
2023/03/14 21:09:53;;;;;;;16.87;6.87;;;;;;;;;;10448922;28;20447;-82
2023/03/14 21:14:54;;;;;;;8.90;4.67;;;;;;;;;;10447789;28;20031;-84
2023/03/14 21:19:58;;;;;;;13.97;6.20;;;;;;;;;;10462914;28;20091;-82
2023/03/14 21:24:59;;;;;;;11.83;5.63;;;;;;;;;;10447206;28;20044;-82
2023/03/14 21:30:00;;;;;;;20.27;8.33;;;;;;;;;;10425970;28;20051;-83
2023/03/14 21:35:01;;;;;;;18.13;8.63;;;;;;;;;;10447336;28;20036;-82
2023/03/14 21:40:02;;;;;;;27.67;11.53;;;;;;;;;;10437414;28;20048;-83
2023/03/14 21:45:04;;;;;;;37.30;22.60;;;;;;;;;;10445457;28;20039;-85
2023/03/14 21:50:05;;;;;;;25.40;13.20;;;;;;;;;;10461782;28;20037;-82
2023/03/14 21:55:06;;;;;;;27.57;12.43;;;;;;;;;;10461570;28;20395;-82
2023/03/14 22:00:11;;;;;;;19.20;10.63;;;;;;;;;;10445634;28;20049;-84
2023/03/14 22:05:12;;;;;;;19.97;11.43;;;;;;;;;;10446043;28;20041;-82
2023/03/14 22:10:14;;;;;;;18.77;11.13;;;;;;;;;;10446152;28;20891;-82
2023/03/14 22:15:15;;;;;;;17.63;9.30;;;;;;;;;;10444831;28;20025;-82
2023/03/14 22:20:16;;;;;;;15.57;9.07;;;;;;;;;;10445411;28;20510;-81
2023/03/14 22:25:17;;;;;;;21.77;13.57;;;;;;;;;;10445497;28;20025;-81
2023/03/14 22:30:18;;;;;;;24.60;14.77;;;;;;;;;;10443356;28;20033;-83
2023/03/14 22:35:19;;;;;;;19.40;9.53;;;;;;;;;;10444964;28;20033;-81
2023/03/14 22:40:20;;;;;;;11.70;6.67;;;;;;;;;;10441693;28;20126;-83
2023/03/14 22:45:21;;;;;;;8.83;5.27;;;;;;;;;;10438554;28;20103;-84
2023/03/14 22:50:22;;;;;;;8.13;5.13;;;;;;;;;;10444574;28;20618;-84
2023/03/14 22:55:23;;;;;;;9.67;5.37;;;;;;;;;;10432836;28;20516;-83
2023/03/14 23:00:25;;;;;;;13.63;6.67;;;;;;;;;;10443111;28;20066;-82
2023/03/14 23:05:26;;;;;;;12.57;7.07;;;;;;;;;;10439892;28;20061;-82
2023/03/14 23:10:27;;;;;;;17.90;8.60;;;;;;;;;;10443738;28;20146;-84
2023/03/14 23:15:28;;;;;;;20.40;11.03;;;;;;;;;;10443078;28;20797;-85
2023/03/14 23:20:29;;;;;;;21.70;11.30;;;;;;;;;;10443608;28;20037;-82
2023/03/14 23:25:30;;;;;;;15.33;8.50;;;;;;;;;;10442596;28;20941;-83
2023/03/14 23:30:31;;;;;;;13.17;7.73;;;;;;;;;;10442263;28;20025;-83
2023/03/14 23:35:33;;;;;;;9.33;6.10;;;;;;;;;;10442612;28;20102;-85
2023/03/14 23:40:35;;;;;;;14.30;8.50;;;;;;;;;;10442651;28;20037;-84
2023/03/14 23:45:36;;;;;;;11.37;6.93;;;;;;;;;;10438446;28;20033;-82
2023/03/14 23:50:37;;;;;;;5.80;4.30;;;;;;;;;;10442313;28;20036;-82
2023/03/14 23:55:38;;;;;;;5.20;2.40;;;;;;;;;;10450640;28;20460;-85
